createdAt,value
2022-08-19T00:02:04.348Z,14.02
2022-08-19T00:04:36.096Z,14.70
2022-08-19T00:09:32.344Z,12.30
2022-08-19T00:12:00.519Z,14.02
2022-08-19T00:14:28.892Z,14.65
2022-08-19T00:16:56.085Z,13.25
2022-08-19T00:19:24.323Z,12.45
2022-08-19T00:21:52.239Z,16.77
2022-08-19T00:24:19.751Z,18.20
2022-08-19T00:26:49.432Z,17.45
2022-08-19T00:29:19.954Z,14.52
2022-08-19T00:31:47.981Z,16.17
2022-08-19T00:34:18.121Z,13.25
2022-08-19T00:36:46.155Z,15.70
2022-08-19T00:39:15.344Z,16.30
2022-08-19T00:41:44.077Z,13.15
2022-08-19T00:44:17.352Z,14.40
2022-08-19T00:46:55.326Z,15.73
2022-08-19T00:49:31.445Z,13.98
2022-08-19T00:52:03.596Z,13.23
2022-08-19T00:54:31.581Z,13.77
2022-08-19T00:56:59.600Z,14.40
2022-08-19T01:00:00.326Z,14.48
2022-08-19T01:02:17.856Z,13.40
2022-08-19T01:04:45.672Z,12.10
2022-08-19T01:07:15.142Z,12.88
2022-08-19T01:09:47.699Z,16.40
2022-08-19T01:12:15.513Z,14.98
2022-08-19T01:14:44.655Z,19.17
2022-08-19T01:17:13.569Z,14.43
2022-08-19T01:19:44.809Z,13.02
2022-08-19T01:22:26.483Z,14.05
2022-08-19T01:24:57.932Z,15.80
2022-08-19T01:27:26.953Z,15.45
2022-08-19T01:29:57.192Z,16.45
2022-08-19T01:32:34.047Z,15.50
2022-08-19T01:35:02.869Z,15.50
2022-08-19T01:37:30.834Z,17.42
2022-08-19T01:39:59.458Z,14.43
2022-08-19T01:42:30.108Z,14.48
2022-08-19T01:44:57.955Z,15.95
2022-08-19T01:47:25.378Z,14.18
2022-08-19T01:49:53.054Z,16.58
2022-08-19T01:52:20.308Z,15.15
2022-08-19T01:54:47.602Z,14.95
2022-08-19T01:57:16.993Z,15.57
2022-08-19T01:59:46.364Z,17.48
2022-08-19T02:02:13.749Z,14.40
2022-08-19T02:04:41.206Z,16.77
2022-08-19T02:07:08.956Z,14.38
2022-08-19T02:09:36.510Z,16.38
2022-08-19T02:12:04.635Z,15.02
2022-08-19T02:14:34.834Z,14.32
2022-08-19T02:17:02.080Z,14.30
2022-08-19T02:19:29.676Z,13.70
2022-08-19T02:21:56.900Z,14.35
2022-08-19T02:24:24.294Z,13.85
2022-08-19T02:26:51.748Z,12.48
2022-08-19T02:29:18.994Z,12.85
2022-08-19T02:31:47.709Z,15.02
2022-08-19T02:34:15.209Z,16.92
2022-08-19T02:36:42.725Z,15.63
2022-08-19T02:39:10.119Z,12.93
2022-08-19T02:41:37.555Z,12.40
2022-08-19T02:44:30.357Z,13.90
2022-08-19T02:46:54.983Z,13.45
2022-08-19T02:49:22.123Z,17.88
2022-08-19T02:51:49.522Z,14.85
2022-08-19T02:54:17.034Z,15.70
2022-08-19T02:56:45.169Z,14.77
2022-08-19T02:59:13.041Z,17.08
2022-08-19T03:01:43.072Z,15.35
2022-08-19T03:04:14.309Z,14.20
2022-08-19T03:06:44.702Z,13.98
2022-08-19T03:09:13.274Z,15.00
2022-08-19T03:11:40.952Z,14.15
2022-08-19T03:14:10.072Z,14.45
2022-08-19T03:16:48.557Z,13.88
2022-08-19T03:19:20.271Z,15.48
2022-08-19T03:21:47.839Z,21.05
2022-08-19T03:24:16.239Z,18.05
2022-08-19T03:26:47.878Z,20.58
2022-08-19T03:29:15.919Z,24.73
2022-08-19T03:31:58.487Z,16.17
2022-08-19T03:34:29.964Z,15.00
2022-08-19T03:36:58.703Z,18.75
2022-08-19T03:39:27.046Z,18.52
2022-08-19T03:42:32.424Z,17.50
2022-08-19T03:44:44.140Z,19.48
2022-08-19T03:47:11.495Z,18.10
2022-08-19T03:49:40.281Z,18.63
2022-08-19T03:52:07.789Z,17.88
2022-08-19T03:54:35.403Z,16.70
2022-08-19T03:57:03.508Z,14.82
2022-08-19T03:59:33.433Z,17.17
2022-08-19T04:02:06.233Z,16.92
2022-08-19T04:04:33.743Z,18.10
2022-08-19T04:07:02.385Z,18.55
2022-08-19T04:09:30.047Z,17.33
2022-08-19T04:11:58.682Z,18.48
2022-08-19T04:14:28.484Z,17.90
2022-08-19T04:16:55.679Z,16.27
2022-08-19T04:19:23.167Z,20.83
2022-08-19T04:21:53.347Z,18.30
2022-08-19T04:24:23.145Z,19.73
2022-08-19T04:26:51.914Z,18.23
2022-08-19T04:29:21.368Z,17.27
2022-08-19T04:31:49.153Z,19.50
2022-08-19T04:34:19.032Z,16.98
2022-08-19T04:36:46.722Z,16.15
2022-08-19T04:39:17.302Z,16.52
2022-08-19T04:41:47.250Z,16.70
2022-08-19T04:44:14.521Z,19.20
2022-08-19T04:46:50.873Z,17.08
2022-08-19T04:49:21.796Z,22.13
2022-08-19T04:51:49.681Z,16.38
2022-08-19T04:54:36.962Z,17.13
2022-08-19T04:57:08.246Z,17.10
2022-08-19T04:59:35.858Z,15.68
2022-08-19T05:02:03.730Z,20.13
2022-08-19T05:04:31.527Z,18.73
2022-08-19T05:07:00.829Z,17.33
2022-08-19T05:09:28.749Z,19.92
2022-08-19T05:12:18.427Z,17.52
2022-08-19T05:14:46.272Z,17.73
2022-08-19T05:17:32.097Z,19.10
2022-08-19T05:20:01.600Z,16.80
2022-08-19T05:22:28.842Z,16.80
2022-08-19T05:25:11.674Z,15.40
2022-08-19T05:27:43.041Z,16.45
2022-08-19T05:30:11.505Z,19.00
2022-08-19T05:32:39.176Z,15.02
2022-08-19T05:35:08.011Z,17.88
2022-08-19T05:37:35.211Z,17.20
2022-08-19T05:40:03.534Z,17.58
2022-08-19T05:42:31.213Z,18.60
2022-08-19T05:47:45.057Z,16.60
2022-08-19T05:50:15.002Z,17.95
2022-08-19T05:52:45.846Z,20.13
2022-08-19T05:55:17.469Z,16.77
2022-08-19T05:57:44.778Z,17.05
2022-08-19T06:00:14.689Z,18.90
2022-08-19T06:02:42.798Z,16.77
2022-08-19T06:05:11.340Z,14.57
2022-08-19T06:07:39.264Z,15.77
2022-08-19T06:10:09.609Z,17.30
2022-08-19T06:12:37.441Z,16.02
2022-08-19T06:15:09.903Z,15.68
2022-08-19T06:17:39.903Z,18.17
2022-08-19T06:20:09.648Z,16.85
2022-08-19T06:22:39.192Z,13.95
2022-08-19T06:25:08.006Z,15.20
2022-08-19T06:27:35.313Z,13.23
2022-08-19T06:30:03.382Z,15.32
2022-08-19T06:32:31.334Z,12.98
2022-08-19T06:35:00.137Z,13.23
2022-08-19T06:37:27.413Z,17.73
2022-08-19T06:39:55.055Z,17.58
2022-08-19T06:42:24.038Z,13.85
2022-08-19T06:44:53.294Z,13.35
2022-08-19T06:47:23.721Z,18.00
2022-08-19T06:50:01.404Z,14.23
2022-08-19T06:52:34.240Z,14.60
2022-08-19T06:55:01.750Z,11.95
2022-08-19T06:57:34.751Z,13.38
2022-08-19T07:00:02.154Z,10.48
2022-08-19T07:02:30.099Z,10.35
2022-08-19T07:04:57.666Z,8.25
2022-08-19T07:07:25.059Z,10.77
2022-08-19T07:10:00.869Z,12.90
2022-08-19T07:12:31.080Z,10.63
2022-08-19T07:14:59.062Z,11.63
2022-08-19T07:17:27.269Z,12.15
2022-08-19T07:19:54.892Z,12.75
2022-08-19T07:22:22.857Z,11.63
2022-08-19T07:24:53.249Z,11.82
2022-08-19T07:27:24.370Z,14.38
2022-08-19T07:29:57.144Z,12.27
2022-08-19T07:32:25.725Z,12.90
2022-08-19T07:34:53.080Z,12.35
2022-08-19T07:37:20.384Z,12.68
2022-08-19T07:39:47.818Z,15.60
2022-08-19T07:42:16.495Z,14.63
2022-08-19T07:44:50.558Z,12.98
2022-08-19T07:47:49.489Z,12.43
2022-08-19T07:50:11.150Z,12.32
2022-08-19T07:52:40.698Z,13.55
2022-08-19T07:55:11.407Z,12.95
2022-08-19T07:57:59.058Z,9.77
2022-08-19T08:00:26.593Z,11.75
2022-08-19T08:02:55.590Z,9.93
2022-08-19T08:05:24.373Z,11.73
2022-08-19T08:07:51.594Z,10.05
2022-08-19T08:10:21.020Z,10.15
2022-08-19T08:12:58.362Z,11.45
2022-08-19T08:15:42.206Z,9.93
2022-08-19T08:18:10.827Z,9.32
2022-08-19T08:20:38.600Z,12.55
2022-08-19T08:23:05.823Z,13.43
2022-08-19T08:25:34.410Z,9.73
2022-08-19T08:28:03.954Z,13.25
2022-08-19T08:30:32.751Z,11.88
2022-08-19T08:33:02.486Z,9.23
2022-08-19T08:35:30.017Z,12.25
2022-08-19T08:37:57.856Z,10.70
2022-08-19T08:40:30.389Z,9.77
2022-08-19T08:45:41.087Z,12.48
2022-08-19T08:48:22.356Z,10.27
2022-08-19T08:50:55.834Z,9.88
2022-08-19T08:53:29.637Z,10.52
2022-08-19T08:56:00.037Z,13.35
2022-08-19T08:58:33.129Z,11.80
2022-08-19T09:01:00.670Z,8.55
2022-08-19T09:03:31.598Z,8.45
2022-08-19T09:06:03.091Z,10.77
2022-08-19T09:08:44.224Z,7.82
2022-08-19T09:11:16.062Z,10.00
2022-08-19T09:14:40.617Z,9.95
2022-08-19T09:17:04.104Z,9.55
2022-08-19T09:19:33.809Z,7.72
2022-08-19T09:22:01.072Z,9.32
2022-08-19T09:24:31.240Z,6.22
2022-08-19T09:26:58.937Z,6.18
2022-08-19T09:29:26.228Z,8.75
2022-08-19T09:31:53.441Z,6.45
2022-08-19T09:34:22.182Z,11.27
2022-08-19T09:36:51.445Z,8.23
2022-08-19T09:39:19.305Z,9.05
2022-08-19T09:41:49.103Z,7.88
2022-08-19T09:44:16.799Z,6.32
2022-08-19T09:46:45.464Z,6.63
2022-08-19T09:49:13.469Z,9.32
2022-08-19T09:51:40.759Z,8.65
2022-08-19T09:54:11.518Z,6.88
2022-08-19T09:56:39.155Z,8.52
2022-08-19T09:59:09.626Z,7.40
2022-08-19T10:01:37.113Z,7.95
2022-08-19T10:04:14.694Z,6.53
2022-08-19T10:06:48.250Z,9.50
2022-08-19T10:09:33.794Z,9.52
2022-08-19T10:12:03.761Z,9.20
2022-08-19T10:14:31.666Z,7.43
2022-08-19T10:16:59.169Z,7.57
2022-08-19T10:19:26.616Z,10.15
2022-08-19T10:21:55.719Z,7.75
2022-08-19T10:24:29.598Z,6.30
2022-08-19T10:26:59.979Z,8.30
2022-08-19T10:29:32.979Z,6.90
2022-08-19T10:32:02.439Z,8.35
2022-08-19T10:34:31.560Z,6.25
2022-08-19T10:37:01.061Z,9.95
2022-08-19T10:39:32.875Z,8.07
2022-08-19T10:42:10.144Z,7.15
2022-08-19T10:44:37.625Z,6.75
2022-08-19T10:47:05.492Z,10.77
2022-08-19T10:49:50.260Z,6.80
2022-08-19T10:52:18.962Z,6.32
2022-08-19T10:54:49.307Z,6.40
2022-08-19T10:57:16.747Z,8.15
2022-08-19T10:59:43.971Z,6.95
2022-08-19T11:02:12.146Z,6.97
2022-08-19T11:04:40.549Z,5.82
2022-08-19T11:07:09.338Z,5.95
2022-08-19T11:09:40.914Z,7.38
2022-08-19T11:12:11.477Z,7.60
2022-08-19T11:14:38.847Z,7.95
2022-08-19T11:17:06.600Z,5.40
2022-08-19T11:19:34.753Z,5.97
2022-08-19T11:22:02.322Z,5.60
2022-08-19T11:24:31.442Z,5.32
2022-08-19T11:27:03.496Z,5.60
2022-08-19T11:29:32.991Z,7.70
2022-08-19T11:32:00.464Z,5.15
2022-08-19T11:34:28.313Z,5.18
2022-08-19T11:36:57.425Z,8.38
2022-08-19T11:39:26.115Z,6.47
2022-08-19T11:41:53.297Z,8.93
2022-08-19T11:44:20.681Z,5.85
2022-08-19T11:46:49.575Z,6.45
2022-08-19T11:49:19.090Z,6.85
2022-08-19T11:51:47.416Z,5.13
2022-08-19T11:54:15.941Z,7.25
2022-08-19T11:56:44.201Z,6.43
2022-08-19T11:59:14.647Z,6.68
2022-08-19T12:04:11.765Z,6.07
2022-08-19T12:06:41.017Z,4.75
2022-08-19T12:09:11.032Z,5.22
2022-08-19T12:11:39.084Z,5.90
2022-08-19T12:14:07.082Z,5.47
2022-08-19T12:16:34.774Z,5.85
2022-08-19T12:19:05.683Z,5.10
2022-08-19T12:21:36.572Z,5.13
2022-08-19T12:26:34.560Z,7.07
2022-08-19T12:29:04.185Z,5.63
2022-08-19T12:31:31.805Z,8.32
2022-08-19T12:33:59.642Z,6.38
2022-08-19T12:36:26.906Z,6.63
2022-08-19T12:38:55.801Z,6.00
2022-08-19T12:41:23.026Z,7.55
2022-08-19T12:43:50.779Z,6.25
2022-08-19T12:46:20.139Z,8.07
2022-08-19T12:48:51.126Z,9.13
2022-08-19T12:51:22.890Z,10.38
2022-08-19T12:53:50.308Z,7.10
2022-08-19T12:56:22.862Z,7.05
2022-08-19T12:58:52.812Z,9.15
2022-08-19T13:01:23.172Z,6.50
2022-08-19T13:03:51.388Z,6.70
2022-08-19T13:06:19.030Z,5.72
2022-08-19T13:08:47.673Z,7.72
2022-08-19T13:11:17.134Z,8.23
2022-08-19T13:13:48.865Z,7.10
2022-08-19T13:16:16.150Z,6.70
2022-08-19T13:18:46.235Z,8.85
2022-08-19T13:21:13.934Z,6.50
2022-08-19T13:23:42.331Z,6.70
2022-08-19T13:26:11.497Z,7.97
2022-08-19T13:28:40.740Z,7.43
2022-08-19T13:31:09.401Z,6.82
2022-08-19T13:33:36.669Z,6.47
2022-08-19T13:36:04.633Z,6.38
2022-08-19T13:38:31.918Z,6.28
2022-08-19T13:41:10.963Z,5.97
2022-08-19T13:43:41.156Z,8.35
2022-08-19T13:46:12.127Z,8.07
2022-08-19T13:48:39.518Z,9.05
2022-08-19T13:51:07.242Z,8.32
2022-08-19T13:53:34.459Z,11.23
2022-08-19T13:56:05.739Z,14.80
2022-08-19T13:58:35.240Z,12.70
2022-08-19T14:01:03.123Z,13.00
2022-08-19T14:03:32.635Z,16.58
2022-08-19T14:06:00.555Z,14.05
2022-08-19T14:08:27.857Z,15.52
2022-08-19T14:10:56.299Z,14.38
2022-08-19T14:13:24.596Z,13.88
2022-08-19T14:15:52.594Z,12.40
2022-08-19T14:18:20.212Z,14.30
2022-08-19T14:20:49.085Z,15.40
2022-08-19T14:23:16.395Z,16.17
2022-08-19T14:25:44.681Z,15.32
2022-08-19T14:28:12.180Z,15.52
2022-08-19T14:30:40.074Z,17.58
2022-08-19T14:33:08.150Z,17.10
2022-08-19T14:35:36.056Z,15.20
2022-08-19T14:38:06.456Z,19.00
2022-08-19T14:40:33.832Z,15.35
2022-08-19T14:43:04.579Z,14.20
2022-08-19T14:45:34.864Z,15.63
2022-08-19T14:48:04.988Z,15.25
2022-08-19T14:50:32.453Z,17.20
2022-08-19T14:53:00.888Z,16.77
2022-08-19T14:55:29.766Z,17.25
2022-08-19T14:57:57.329Z,14.90
2022-08-19T15:00:26.125Z,14.75
2022-08-19T15:02:53.907Z,19.98
2022-08-19T15:05:21.440Z,17.73
2022-08-19T15:07:48.839Z,16.08
2022-08-19T15:10:16.644Z,16.45
2022-08-19T15:12:48.599Z,14.05
2022-08-19T15:15:37.283Z,16.90
2022-08-19T15:18:04.700Z,15.73
2022-08-19T15:20:32.202Z,14.73
2022-08-19T15:22:59.463Z,19.00
2022-08-19T15:25:27.253Z,16.77
2022-08-19T15:27:56.666Z,19.52
2022-08-19T15:30:26.512Z,16.38
2022-08-19T15:32:54.112Z,18.88
2022-08-19T15:35:22.930Z,13.80
2022-08-19T15:37:51.246Z,17.20
2022-08-19T15:40:20.091Z,19.88
2022-08-19T15:42:47.905Z,14.80
2022-08-19T15:45:18.580Z,16.52
2022-08-19T15:47:45.830Z,14.18
2022-08-19T15:50:17.578Z,17.05
2022-08-19T15:52:50.295Z,13.13
2022-08-19T15:55:27.684Z,13.07
2022-08-19T15:58:01.806Z,18.05
2022-08-19T16:00:30.791Z,14.43
2022-08-19T16:02:58.045Z,13.63
2022-08-19T16:05:27.553Z,14.80
2022-08-19T16:07:55.239Z,14.48
2022-08-19T16:10:26.087Z,14.77
2022-08-19T16:12:54.249Z,13.95
2022-08-19T16:15:22.140Z,13.27
2022-08-19T16:17:57.116Z,12.73
2022-08-19T16:20:27.610Z,13.35
2022-08-19T16:22:55.446Z,14.38
2022-08-19T16:25:22.985Z,14.60
2022-08-19T16:28:06.443Z,13.90
2022-08-19T16:30:37.196Z,16.75
2022-08-19T16:33:06.768Z,13.18
2022-08-19T16:35:34.200Z,14.07
2022-08-19T16:38:04.679Z,14.57
2022-08-19T16:40:32.494Z,13.15
2022-08-19T16:43:00.457Z,11.18
2022-08-19T16:45:28.008Z,12.60
2022-08-19T16:47:55.939Z,12.55
2022-08-19T16:50:45.807Z,12.82
2022-08-19T16:53:12.953Z,12.65
2022-08-19T16:55:40.424Z,11.90
2022-08-19T16:58:07.679Z,13.30
2022-08-19T17:00:35.233Z,14.25
2022-08-19T17:03:06.677Z,12.07
2022-08-19T17:05:35.345Z,13.40
2022-08-19T17:08:03.271Z,12.15
2022-08-19T17:10:30.601Z,12.65
2022-08-19T17:12:58.038Z,14.65
2022-08-19T17:15:26.057Z,13.10
2022-08-19T17:17:53.459Z,12.90
2022-08-19T17:20:21.138Z,13.13
2022-08-19T17:22:50.365Z,13.00
2022-08-19T17:25:17.797Z,13.50
2022-08-19T17:27:44.936Z,13.52
2022-08-19T17:30:13.991Z,14.65
2022-08-19T17:32:41.276Z,13.98
2022-08-19T17:35:09.364Z,13.07
2022-08-19T17:37:38.083Z,15.18
2022-08-19T17:40:12.317Z,12.50
2022-08-19T17:42:43.213Z,15.88
2022-08-19T17:45:12.037Z,14.65
2022-08-19T17:47:41.817Z,12.75
2022-08-19T17:50:11.094Z,14.57
2022-08-19T17:52:38.901Z,14.10
2022-08-19T17:55:08.463Z,13.93
2022-08-19T17:57:36.543Z,16.70
2022-08-19T18:00:06.306Z,11.77
2022-08-19T18:02:44.950Z,13.23
2022-08-19T18:05:13.683Z,13.35
2022-08-19T18:07:41.516Z,15.05
2022-08-19T18:10:13.467Z,12.40
2022-08-19T18:12:40.738Z,17.05
2022-08-19T18:15:09.927Z,17.50
2022-08-19T18:17:37.215Z,17.10
2022-08-19T18:20:07.488Z,18.10
2022-08-19T18:22:39.364Z,14.50
2022-08-19T18:25:10.036Z,14.13
2022-08-19T18:30:08.235Z,12.60
2022-08-19T18:32:37.791Z,13.43
2022-08-19T18:35:08.541Z,13.88
2022-08-19T18:37:35.947Z,13.30
2022-08-19T18:40:04.294Z,15.05
2022-08-19T18:42:32.166Z,13.88
2022-08-19T18:45:00.776Z,15.85
2022-08-19T18:47:28.017Z,15.30
2022-08-19T18:49:55.863Z,13.25
2022-08-19T18:52:23.232Z,14.63
2022-08-19T18:54:50.564Z,14.35
2022-08-19T18:57:18.278Z,17.20
2022-08-19T18:59:46.448Z,15.10
2022-08-19T19:02:17.371Z,17.42
2022-08-19T19:04:46.267Z,17.55
2022-08-19T19:07:13.497Z,17.85
2022-08-19T19:09:41.829Z,15.43
2022-08-19T19:12:11.840Z,18.00
2022-08-19T19:14:49.895Z,17.92
2022-08-19T19:17:19.630Z,15.88
2022-08-19T19:19:46.996Z,14.75
2022-08-19T19:22:17.788Z,17.70
2022-08-19T19:24:45.739Z,16.08
2022-08-19T19:27:15.086Z,14.90
2022-08-19T19:29:42.606Z,15.80
2022-08-19T19:32:20.304Z,19.08
2022-08-19T19:34:49.135Z,18.35
2022-08-19T19:37:16.989Z,17.60
2022-08-19T19:39:46.332Z,16.95
2022-08-19T19:42:20.434Z,17.50
2022-08-19T19:44:50.630Z,16.77
2022-08-19T19:47:19.349Z,18.10
2022-08-19T19:50:12.728Z,16.65
2022-08-19T19:52:36.251Z,19.17
2022-08-19T19:55:03.914Z,19.88
2022-08-19T19:57:31.194Z,19.25
2022-08-19T19:59:59.099Z,17.05
2022-08-19T20:02:26.407Z,17.33
2022-08-19T20:04:55.071Z,15.50
2022-08-19T20:07:22.605Z,17.10
2022-08-19T20:09:59.862Z,19.27
2022-08-19T20:12:28.255Z,17.35
2022-08-19T20:14:55.515Z,19.42
2022-08-19T20:17:22.850Z,17.08
2022-08-19T20:19:50.382Z,22.00
2022-08-19T20:22:19.034Z,15.80
2022-08-19T20:24:46.557Z,15.48
2022-08-19T20:27:14.482Z,16.30
2022-08-19T20:29:44.262Z,17.80
2022-08-19T20:32:12.706Z,21.05
2022-08-19T20:34:40.760Z,18.08
2022-08-19T20:37:08.248Z,17.98
2022-08-19T20:39:37.175Z,17.08
2022-08-19T20:42:05.334Z,16.73
2022-08-19T20:44:32.561Z,18.90
2022-08-19T20:47:03.501Z,21.60
2022-08-19T20:49:32.402Z,20.15
2022-08-19T20:51:59.852Z,21.10
2022-08-19T20:54:27.850Z,23.63
2022-08-19T20:56:57.417Z,21.20
2022-08-19T20:59:24.842Z,21.75
2022-08-19T21:01:53.316Z,22.95
2022-08-19T21:04:24.356Z,22.95
2022-08-19T21:06:54.500Z,23.02
2022-08-19T21:09:22.176Z,22.85
2022-08-19T21:11:50.214Z,21.40
2022-08-19T21:14:18.754Z,22.10
2022-08-19T21:16:46.485Z,24.83
2022-08-19T21:19:13.811Z,26.90
2022-08-19T21:21:41.056Z,26.35
2022-08-19T21:24:08.831Z,22.15
2022-08-19T21:26:36.115Z,25.58
2022-08-19T21:29:03.512Z,24.88
2022-08-19T21:31:32.722Z,27.50
2022-08-19T21:33:59.927Z,23.30
2022-08-19T21:36:27.261Z,25.60
2022-08-19T21:38:54.856Z,24.10
2022-08-19T21:41:22.420Z,23.63
2022-08-19T21:43:49.652Z,26.35
2022-08-19T21:46:17.309Z,25.15
2022-08-19T21:48:46.018Z,24.65
2022-08-19T21:51:13.651Z,26.67
2022-08-19T21:53:41.367Z,23.40
2022-08-19T21:56:10.881Z,24.77
2022-08-19T21:58:38.141Z,25.90
2022-08-19T22:01:06.533Z,27.52
2022-08-19T22:03:35.247Z,26.25
2022-08-19T22:06:05.293Z,25.65
2022-08-19T22:08:32.907Z,27.80
2022-08-19T22:11:00.090Z,24.88
2022-08-19T22:13:28.466Z,26.58
2022-08-19T22:15:55.943Z,33.13
2022-08-19T22:18:23.148Z,25.25
2022-08-19T22:20:50.602Z,29.63
2022-08-19T22:23:19.538Z,26.10
2022-08-19T22:25:47.293Z,25.13
2022-08-19T22:28:19.179Z,24.45
2022-08-19T22:30:56.060Z,27.45
2022-08-19T22:33:24.110Z,22.20
2022-08-19T22:35:52.888Z,22.30
2022-08-19T22:38:22.825Z,25.08
2022-08-19T22:40:51.623Z,27.95
2022-08-19T22:43:22.345Z,26.98
2022-08-19T22:45:51.364Z,21.80
2022-08-19T22:48:19.522Z,24.10
2022-08-19T22:50:48.274Z,26.95
2022-08-19T22:53:15.787Z,27.45
2022-08-19T22:55:44.488Z,24.55
2022-08-19T22:58:11.784Z,24.90
2022-08-19T23:00:39.410Z,27.73
2022-08-19T23:03:06.879Z,22.30
2022-08-19T23:05:34.058Z,24.80
2022-08-19T23:08:05.726Z,27.08
2022-08-19T23:10:33.228Z,28.00
2022-08-19T23:13:01.937Z,26.92
2022-08-19T23:15:32.405Z,24.95
2022-08-19T23:18:02.526Z,28.00
2022-08-19T23:20:32.322Z,29.38
2022-08-19T23:23:01.961Z,27.55
2022-08-19T23:25:31.210Z,31.50
2022-08-19T23:27:59.200Z,29.60
2022-08-19T23:30:29.832Z,32.83
2022-08-19T23:33:00.018Z,25.13
2022-08-19T23:35:32.614Z,26.90
2022-08-19T23:38:00.051Z,27.95
2022-08-19T23:40:27.813Z,28.73
2022-08-19T23:42:55.551Z,25.65
2022-08-19T23:45:24.695Z,27.58
2022-08-19T23:47:54.064Z,25.42
2022-08-19T23:50:22.941Z,25.92
2022-08-19T23:52:52.986Z,30.27
2022-08-19T23:55:23.102Z,28.65
2022-08-19T23:57:51.164Z,25.80
